Time;durP1;ratioP1;P1;durP2;ratioP2;P2;SDS_P1;SDS_P2;PMS_P1;PMS_P2;Temp;Humidity;BMP_temperature;BMP_pressure;BME280_temperature;BME280_humidity;BME280_pressure;Samples;Min_cycle;Max_cycle;Signal;HPM_P1;HPM_P2
2023/04/21 00:00:58;;;;;;;12.35;11.15;;;;;;;14.39;65.06;99043.31;5092432;28;20076;-76
2023/04/21 00:03:27;;;;;;;12.27;10.98;;;;;;;14.85;65.03;99109.44;5092528;28;20012;-77
2023/04/21 00:05:57;;;;;;;12.10;10.98;;;;;;;14.80;64.92;99103.16;5092620;28;20024;-77
2023/04/21 00:08:25;;;;;;;11.48;10.27;;;;;;;14.63;65.00;99082.41;5092403;28;20103;-77
2023/04/21 00:10:50;;;;;;;11.38;10.25;;;;;;;14.72;64.77;99100.75;5092357;28;20023;-76
2023/04/21 00:13:16;;;;;;;11.10;9.93;;;;;;;14.37;64.64;99045.38;5092273;28;20016;-76
2023/04/21 00:15:41;;;;;;;12.40;11.10;;;;;;;14.66;64.59;99101.63;5091904;28;20413;-77
2023/04/21 00:18:07;;;;;;;11.38;10.30;;;;;;;14.12;64.56;99020.59;5092209;28;20024;-76
2023/04/21 00:20:32;;;;;;;27.05;9.90;;;;;;;14.50;64.27;99100.28;5091965;28;20027;-77
2023/04/21 00:22:58;;;;;;;10.00;9.10;;;;;;;14.02;64.36;99031.69;5091999;28;20027;-77
2023/04/21 00:25:24;;;;;;;10.32;9.27;;;;;;;13.86;64.28;99008.28;5091721;28;20047;-76
2023/04/21 00:27:50;;;;;;;12.90;9.45;;;;;;;14.34;64.39;99090.97;5091981;28;20028;-76
2023/04/21 00:30:15;;;;;;;10.35;9.40;;;;;;;14.22;63.99;99082.03;5092369;28;20028;-76
2023/04/21 00:32:41;;;;;;;14.48;11.98;;;;;;;13.94;64.11;99046.00;5092239;28;20043;-77
2023/04/21 00:35:07;;;;;;;10.55;9.23;;;;;;;13.84;64.01;99015.66;5091968;28;20035;-77
2023/04/21 00:37:32;;;;;;;9.23;8.32;;;;;;;14.22;63.84;99084.69;5092278;28;20039;-76
2023/04/21 00:39:57;;;;;;;9.68;8.65;;;;;;;14.03;63.60;99051.88;5091936;28;20024;-77
2023/04/21 00:42:23;;;;;;;10.85;9.15;;;;;;;13.75;63.63;99003.66;5091760;28;20027;-77
2023/04/21 00:44:49;;;;;;;10.18;8.20;;;;;;;13.82;63.48;99023.81;5090529;28;20028;-77
2023/04/21 00:47:15;;;;;;;10.15;9.10;;;;;;;14.20;63.45;99086.75;5091799;28;20401;-77
2023/04/21 00:49:40;;;;;;;10.13;9.13;;;;;;;14.18;63.49;99083.50;5091796;28;20084;-76
2023/04/21 00:52:07;;;;;;;9.32;8.35;;;;;;;13.85;63.23;99030.53;5091643;28;20083;-77
2023/04/21 00:54:34;;;;;;;9.38;8.48;;;;;;;13.91;63.05;99040.31;5091722;28;20416;-77
2023/04/21 00:57:00;;;;;;;9.27;8.32;;;;;;;13.97;62.88;99053.56;5091516;28;20024;-76
2023/04/21 00:59:26;;;;;;;10.82;9.70;;;;;;;14.00;63.06;99069.06;5091405;28;20024;-76
2023/04/21 01:01:52;;;;;;;9.65;8.60;;;;;;;13.90;62.88;99062.56;5090275;28;20382;-76
2023/04/21 01:04:17;;;;;;;8.93;8.02;;;;;;;13.47;62.89;99002.13;5091539;28;20024;-77
2023/04/21 01:06:43;;;;;;;8.82;8.00;;;;;;;13.36;62.86;98981.53;5090209;28;20027;-77
2023/04/21 01:09:11;;;;;;;9.68;8.73;;;;;;;13.44;62.95;98999.91;5091384;28;20036;-76
2023/04/21 01:11:37;;;;;;;11.50;10.38;;;;;;;13.87;62.92;99057.69;5091477;28;20599;-77
2023/04/21 01:14:03;;;;;;;10.57;9.57;;;;;;;13.60;62.79;99020.66;5091308;28;20021;-77
2023/04/21 01:16:31;;;;;;;10.30;9.23;;;;;;;13.41;63.09;99000.31;5090037;28;20020;-77
2023/04/21 01:18:58;;;;;;;9.48;8.35;;;;;;;13.49;63.11;99005.41;5091240;28;20413;-76
2023/04/21 01:21:23;;;;;;;8.77;7.93;;;;;;;13.57;62.94;99020.25;5090065;28;20557;-76
2023/04/21 01:23:48;;;;;;;9.00;8.20;;;;;;;13.63;62.82;99027.38;5091258;28;20019;-77
2023/04/21 01:26:18;;;;;;;9.20;8.30;;;;;;;13.80;62.77;99065.69;5091026;28;20083;-78
2023/04/21 01:28:43;;;;;;;8.82;8.02;;;;;;;13.74;62.62;99049.78;5094123;28;20028;-77
2023/04/21 01:31:08;;;;;;;9.77;8.77;;;;;;;13.13;62.62;98970.59;5095343;28;20081;-76
2023/04/21 01:33:34;;;;;;;11.82;10.63;;;;;;;13.59;62.73;99042.91;5093923;28;20051;-77
2023/04/21 01:36:00;;;;;;;10.57;9.43;;;;;;;13.64;62.56;99068.78;5095356;28;20027;-77
2023/04/21 01:38:26;;;;;;;11.18;9.40;;;;;;;13.24;62.50;98994.63;5094013;28;20096;-77
2023/04/21 01:40:53;;;;;;;10.93;9.70;;;;;;;13.58;62.68;99048.41;5095138;28;20484;-78
2023/04/21 01:43:22;;;;;;;10.10;9.13;;;;;;;12.91;62.54;98944.34;5095050;28;20020;-77
2023/04/21 01:45:47;;;;;;;9.50;8.60;;;;;;;13.24;62.39;98999.94;5095051;28;20425;-76
2023/04/21 01:48:13;;;;;;;10.50;9.50;;;;;;;13.52;62.47;99051.91;5095120;28;20027;-77
2023/04/21 01:50:38;;;;;;;10.07;9.18;;;;;;;13.56;62.55;99047.81;5094839;28;20016;-77
2023/04/21 01:53:03;;;;;;;10.00;9.00;;;;;;;13.54;62.59;99047.19;5094872;28;20024;-77
2023/04/21 01:55:29;;;;;;;10.45;9.52;;;;;;;13.52;62.91;99051.91;5094833;28;20024;-77
2023/04/21 01:57:56;;;;;;;10.77;9.77;;;;;;;13.11;62.51;98986.69;5094753;28;20107;-77
2023/04/21 02:00:22;;;;;;;10.95;9.85;;;;;;;13.47;62.80;99054.38;5094788;28;20016;-76
2023/04/21 02:02:47;;;;;;;10.38;9.40;;;;;;;13.46;62.92;99061.50;5094824;28;20415;-77
2023/04/21 02:05:13;;;;;;;11.73;10.40;;;;;;;13.47;62.98;99064.97;5094840;28;20099;-78
2023/04/21 02:07:38;;;;;;;12.00;10.82;;;;;;;13.46;62.76;99064.16;5095019;28;20413;-77
2023/04/21 02:10:04;;;;;;;10.77;9.77;;;;;;;13.39;62.75;99059.91;5094712;28;20012;-77
2023/04/21 02:12:30;;;;;;;10.75;9.40;;;;;;;12.93;62.85;99010.38;5093407;28;20023;-76
2023/04/21 02:14:55;;;;;;;11.35;9.80;;;;;;;12.62;62.61;98950.88;5094595;28;20102;-76
2023/04/21 02:17:20;;;;;;;11.68;9.43;;;;;;;12.87;62.47;98982.06;5094563;28;20054;-77
2023/04/21 02:19:46;;;;;;;11.63;9.27;;;;;;;13.31;62.81;99066.22;5094570;28;20095;-76
2023/04/21 02:22:12;;;;;;;12.18;9.48;;;;;;;13.11;62.77;99045.00;5094474;28;20043;-77
2023/04/21 02:24:37;;;;;;;10.80;9.68;;;;;;;13.24;62.68;99066.22;5094279;28;20024;-76
2023/04/21 02:27:03;;;;;;;10.45;9.45;;;;;;;12.87;62.79;99004.06;5094006;28;20048;-76
2023/04/21 02:29:29;;;;;;;10.15;9.23;;;;;;;13.21;62.97;99060.50;5094120;28;20104;-77
2023/04/21 02:31:55;;;;;;;9.95;8.75;;;;;;;13.18;63.02;99064.41;5094264;28;20044;-77
2023/04/21 02:34:20;;;;;;;10.40;9.40;;;;;;;12.78;63.16;99000.00;5092945;28;20031;-76
2023/04/21 02:36:46;;;;;;;9.40;8.60;;;;;;;12.62;63.00;98987.16;5094210;28;20020;-76
2023/04/21 02:39:12;;;;;;;10.30;9.25;;;;;;;13.07;63.32;99062.34;5092505;28;20020;-76
2023/04/21 02:41:38;;;;;;;10.50;9.40;;;;;;;12.65;63.15;99013.25;5092616;28;20052;-77
2023/04/21 02:44:03;;;;;;;10.80;9.80;;;;;;;12.91;63.04;99044.22;5094092;28;20024;-78
2023/04/21 02:46:29;;;;;;;10.57;9.57;;;;;;;12.87;63.05;99056.25;5093954;28;20099;-77
2023/04/21 02:48:55;;;;;;;10.60;9.52;;;;;;;12.84;62.94;99030.16;5093919;28;20020;-77
2023/04/21 02:51:20;;;;;;;11.10;10.00;;;;;;;12.75;63.30;99018.16;5094087;28;20024;-76
2023/04/21 02:53:45;;;;;;;11.32;10.23;;;;;;;12.73;63.62;99016.50;5093766;28;20141;-77
2023/04/21 02:56:11;;;;;;;14.32;10.25;;;;;;;12.99;63.45;99058.06;5093678;28;20479;-78
2023/04/21 02:58:36;;;;;;;10.93;9.93;;;;;;;12.50;63.27;98986.94;5093648;28;20032;-77
2023/04/21 03:01:03;;;;;;;11.00;9.93;;;;;;;12.49;63.31;98990.63;5093704;28;20561;-76
2023/04/21 03:03:30;;;;;;;10.48;9.57;;;;;;;11.84;63.34;98899.56;5093713;28;20024;-77
2023/04/21 03:05:57;;;;;;;9.65;8.75;;;;;;;12.82;63.22;99058.69;5093400;28;20051;-77
2023/04/21 03:08:22;;;;;;;10.65;9.45;;;;;;;12.80;63.24;99064.19;5092161;28;20016;-76
2023/04/21 03:10:47;;;;;;;12.05;10.88;;;;;;;12.42;63.33;99005.69;5093585;28;20099;-76
2023/04/21 03:13:13;;;;;;;10.75;9.65;;;;;;;12.61;63.18;99027.91;5093601;28;20550;-77
2023/04/21 03:15:38;;;;;;;10.25;9.32;;;;;;;12.56;62.98;99036.44;5092140;28;20047;-76
2023/04/21 03:18:04;;;;;;;11.52;9.93;;;;;;;12.26;63.28;98991.00;5093407;28;20020;-77
2023/04/21 03:20:29;;;;;;;11.80;10.70;;;;;;;12.43;62.79;99020.56;5093244;28;20095;-76
2023/04/21 03:22:54;;;;;;;15.27;12.68;;;;;;;12.67;63.17;99057.06;5093273;28;20411;-77
2023/04/21 03:25:20;;;;;;;16.23;14.52;;;;;;;12.58;62.90;99047.66;5093039;28;20056;-77
2023/04/21 03:27:45;;;;;;;13.43;12.13;;;;;;;12.22;62.80;98994.28;5093068;28;20016;-77
2023/04/21 03:30:11;;;;;;;12.23;11.13;;;;;;;12.38;63.00;99030.94;5093224;28;20016;-77
2023/04/21 03:32:37;;;;;;;13.75;12.45;;;;;;;12.66;62.91;99081.09;5093153;28;20024;-77
2023/04/21 03:35:02;;;;;;;15.13;13.68;;;;;;;12.66;62.84;99079.25;5092976;28;20019;-78
2023/04/21 03:37:27;;;;;;;12.85;11.68;;;;;;;12.31;62.99;99027.47;5093111;28;20462;-76
2023/04/21 03:39:53;;;;;;;12.88;11.68;;;;;;;12.16;63.09;98989.78;5092942;28;20031;-76
2023/04/21 03:42:18;;;;;;;14.18;11.40;;;;;;;12.44;62.38;99039.91;5093021;28;20023;-76
2023/04/21 03:44:44;;;;;;;11.65;10.55;;;;;;;12.51;62.66;99052.13;5092766;28;20570;-77
2023/04/21 03:47:09;;;;;;;11.75;10.73;;;;;;;12.38;62.82;99044.19;5091660;28;20031;-77
2023/04/21 03:49:34;;;;;;;12.73;11.52;;;;;;;12.61;62.64;99088.81;5092587;28;20099;-76
2023/04/21 03:52:00;;;;;;;12.95;11.65;;;;;;;12.52;62.73;99067.00;5092348;28;20081;-76
2023/04/21 03:54:25;;;;;;;12.52;11.32;;;;;;;12.33;62.00;99039.47;5092575;28;20493;-76
2023/04/21 03:56:51;;;;;;;11.70;10.50;;;;;;;12.35;62.21;99060.47;5092794;28;20024;-77
2023/04/21 03:59:16;;;;;;;12.85;11.65;;;;;;;12.50;62.46;99090.22;5092526;28;20102;-77
2023/04/21 04:01:42;;;;;;;12.73;11.52;;;;;;;12.44;62.31;99091.03;5092524;28;20024;-77
2023/04/21 04:04:07;;;;;;;12.48;11.18;;;;;;;11.92;62.64;99026.38;5092400;28;20035;-76
2023/04/21 04:06:34;;;;;;;11.80;10.70;;;;;;;12.15;62.28;99059.59;5091164;28;20020;-77
2023/04/21 04:09:03;;;;;;;12.60;11.38;;;;;;;11.99;62.65;99043.06;5092252;28;20020;-77
2023/04/21 04:11:28;;;;;;;11.65;10.55;;;;;;;12.34;62.15;99103.84;5091056;28;20481;-77
2023/04/21 04:13:54;;;;;;;12.27;11.05;;;;;;;12.04;62.08;99047.78;5092294;28;20027;-77
2023/04/21 04:16:19;;;;;;;12.48;11.18;;;;;;;11.81;62.20;99023.44;5092254;28;20016;-76
2023/04/21 04:18:45;;;;;;;16.70;13.70;;;;;;;12.00;62.43;99042.06;5092222;28;20024;-77
2023/04/21 04:21:10;;;;;;;14.05;12.40;;;;;;;12.36;62.06;99117.69;5091938;28;20107;-76
2023/04/21 04:23:36;;;;;;;12.82;11.63;;;;;;;11.85;61.92;99057.25;5091972;28;20024;-78
2023/04/21 04:26:04;;;;;;;14.13;12.50;;;;;;;12.30;61.93;99105.25;5092109;28;20050;-77
2023/04/21 04:28:29;;;;;;;19.30;13.13;;;;;;;11.86;62.16;99060.72;5092078;28;20030;-76
2023/04/21 04:30:55;;;;;;;13.35;11.80;;;;;;;11.83;62.20;99061.09;5092116;28;20094;-78
2023/04/21 04:33:20;;;;;;;12.38;11.20;;;;;;;11.76;61.66;99037.25;5092020;28;20051;-76
2023/04/21 04:35:46;;;;;;;13.07;11.48;;;;;;;11.85;62.16;99059.06;5091987;28;20020;-76
2023/04/21 04:38:13;;;;;;;11.25;10.15;;;;;;;11.92;61.74;99086.41;5091895;28;20500;-76
2023/04/21 04:40:39;;;;;;;12.48;11.18;;;;;;;11.59;61.41;99022.72;5091734;28;20043;-77
2023/04/21 04:43:04;;;;;;;11.73;10.43;;;;;;;11.57;61.63;99037.97;5091771;28;20412;-77
2023/04/21 04:45:31;;;;;;;10.60;9.60;;;;;;;11.55;62.00;99040.81;5092129;28;20429;-76
2023/04/21 04:47:57;;;;;;;11.68;10.20;;;;;;;11.91;62.41;99111.22;5091808;28;20180;-76
2023/04/21 04:50:23;;;;;;;10.32;9.32;;;;;;;11.97;62.25;99127.13;5091716;28;20039;-78
2023/04/21 04:52:49;;;;;;;12.23;10.55;;;;;;;11.37;62.43;99049.28;5091826;28;20457;-76
2023/04/21 04:55:14;;;;;;;11.25;10.05;;;;;;;11.94;62.15;99132.00;5091682;28;20043;-77
2023/04/21 04:57:40;;;;;;;10.80;9.70;;;;;;;11.60;62.19;99054.25;5091570;28;20116;-77
2023/04/21 05:00:10;;;;;;;11.55;10.40;;;;;;;11.82;62.20;99070.88;5091495;28;20024;-77
2023/04/21 05:02:36;;;;;;;11.32;10.30;;;;;;;12.20;61.70;99118.88;5091550;28;20031;-77
2023/04/21 05:05:03;;;;;;;11.75;10.68;;;;;;;11.98;61.99;99073.19;5090174;28;20492;-77
2023/04/21 05:07:28;;;;;;;11.07;8.63;;;;;;;11.98;61.97;99057.31;5090017;28;20103;-76
2023/04/21 05:09:54;;;;;;;11.60;10.40;;;;;;;12.46;62.17;99123.41;5091232;28;20557;-77
2023/04/21 05:12:19;;;;;;;13.02;10.98;;;;;;;11.79;62.13;99005.13;5087142;28;20020;-76
2023/04/21 05:14:45;;;;;;;13.02;11.73;;;;;;;12.53;62.14;99126.06;5082494;28;20031;-77
2023/04/21 05:17:10;;;;;;;12.77;11.50;;;;;;;12.16;61.90;99061.25;5089124;28;20565;-76
2023/04/21 05:19:36;;;;;;;14.07;11.10;;;;;;;12.65;62.09;99127.16;5086490;28;20050;-77
2023/04/21 05:22:05;;;;;;;12.35;11.10;;;;;;;12.75;61.84;99132.03;5085556;28;20120;-78
2023/04/21 05:24:31;;;;;;;14.02;12.50;;;;;;;12.83;62.09;99114.13;5074384;28;20021;-76
2023/04/21 05:26:57;;;;;;;15.20;12.32;;;;;;;12.35;61.90;99034.00;5090676;28;20040;-76
2023/04/21 05:29:22;;;;;;;13.20;11.23;;;;;;;12.76;61.71;99078.03;5090656;28;20511;-77
2023/04/21 05:31:47;;;;;;;13.18;11.40;;;;;;;13.09;62.02;99129.22;5078336;28;20024;-76
2023/04/21 05:34:13;;;;;;;15.48;12.45;;;;;;;12.97;61.49;99088.44;5081798;28;20112;-76
2023/04/21 05:36:42;;;;;;;14.50;12.50;;;;;;;13.23;61.58;99117.59;5090187;28;20023;-76
2023/04/21 05:39:07;;;;;;;14.55;12.10;;;;;;;13.27;61.75;99121.47;5090891;28;20036;-77
2023/04/21 05:41:33;;;;;;;17.77;14.35;;;;;;;13.00;61.93;99059.69;5090927;28;20077;-76
2023/04/21 05:43:58;;;;;;;24.73;16.35;;;;;;;13.01;62.00;99048.06;5089653;28;20012;-76
2023/04/21 05:46:23;;;;;;;19.90;16.40;;;;;;;13.29;61.81;99084.16;5090970;28;20546;-77
2023/04/21 05:48:49;;;;;;;21.70;16.00;;;;;;;13.05;61.96;99032.56;5089729;28;20062;-76
2023/04/21 05:51:14;;;;;;;16.17;13.48;;;;;;;13.66;62.02;99102.06;5098350;28;20016;-77
2023/04/21 05:53:41;;;;;;;14.48;11.90;;;;;;;13.75;61.98;99099.97;5088822;28;20032;-77
2023/04/21 05:56:10;;;;;;;11.93;10.73;;;;;;;13.72;62.21;99088.97;5098342;28;20408;-76
2023/04/21 05:58:36;;;;;;;14.27;11.70;;;;;;;13.16;62.39;98992.19;5090406;28;20077;-76
2023/04/21 06:01:02;;;;;;;13.07;11.75;;;;;;;13.91;62.52;99099.50;5094936;28;20032;-75
2023/04/21 06:03:30;;;;;;;14.50;13.00;;;;;;;13.46;63.04;99023.56;5096017;28;20531;-75
2023/04/21 06:05:55;;;;;;;14.00;10.20;;;;;;;13.80;62.90;99070.16;5082552;28;20026;-76
2023/04/21 06:08:21;;;;;;;11.98;10.60;;;;;;;14.11;63.11;99094.13;5085256;28;20028;-76
2023/04/21 06:10:47;;;;;;;13.50;10.77;;;;;;;14.00;63.01;99076.19;5090568;28;20027;-75
2023/04/21 06:13:12;;;;;;;14.57;12.25;;;;;;;13.79;62.95;99028.75;5086747;28;20035;-75
2023/04/21 06:15:38;;;;;;;10.60;9.60;;;;;;;13.92;62.78;99053.38;5100920;28;20024;-75
2023/04/21 06:18:03;;;;;;;12.75;10.63;;;;;;;14.21;62.40;99061.81;5112606;28;20031;-76
2023/04/21 06:20:29;;;;;;;10.32;9.23;;;;;;;14.03;62.22;99048.41;5114471;28;20020;-76
2023/04/21 06:22:54;;;;;;;10.40;9.05;;;;;;;14.32;61.75;99079.75;5092423;28;20032;-77
2023/04/21 06:25:20;;;;;;;10.38;8.38;;;;;;;14.59;60.95;99113.09;5086792;28;20074;-77
2023/04/21 06:27:45;;;;;;;10.00;9.00;;;;;;;14.66;60.96;99109.59;5099207;28;20032;-77
2023/04/21 06:30:11;;;;;;;11.73;9.73;;;;;;;14.13;60.55;99017.75;5107444;28;20022;-77
2023/04/21 06:32:37;;;;;;;12.15;10.85;;;;;;;14.49;60.31;99062.28;5095341;28;20052;-76
2023/04/21 06:35:03;;;;;;;12.57;10.38;;;;;;;14.37;59.96;99033.94;5091130;28;20031;-78
2023/04/21 06:37:28;;;;;;;14.82;9.65;;;;;;;14.92;59.67;99104.91;5092014;28;20096;-77
2023/04/21 06:39:54;;;;;;;8.95;8.15;;;;;;;14.73;59.37;99071.31;5091642;28;20552;-76
2023/04/21 06:42:19;;;;;;;9.82;8.93;;;;;;;14.87;59.10;99094.13;5090073;28;20043;-76
2023/04/21 06:44:45;;;;;;;11.07;8.98;;;;;;;15.03;58.75;99091.97;5099780;28;20035;-77
2023/04/21 06:47:10;;;;;;;11.80;9.30;;;;;;;15.05;58.65;99088.03;5093731;28;20039;-77
2023/04/21 06:49:36;;;;;;;10.50;9.38;;;;;;;14.89;58.80;99048.72;5105014;28;20512;-76
2023/04/21 06:52:02;;;;;;;8.82;7.95;;;;;;;14.80;58.53;99024.22;5088609;28;20034;-76
2023/04/21 06:54:28;;;;;;;9.70;8.75;;;;;;;15.21;58.63;99079.50;5113198;28;20035;-76
2023/04/21 06:56:53;;;;;;;10.82;9.68;;;;;;;15.23;58.97;99079.28;5111480;28;20024;-76
2023/04/21 06:59:19;;;;;;;11.18;9.38;;;;;;;15.44;59.05;99094.84;5092344;28;20024;-77
2023/04/21 07:01:44;;;;;;;10.55;7.70;;;;;;;15.60;59.39;99098.78;5092084;28;20055;-77
2023/04/21 07:04:10;;;;;;;12.95;10.80;;;;;;;15.40;58.95;99050.28;5093086;28;20024;-77
2023/04/21 07:06:35;;;;;;;10.38;9.38;;;;;;;15.69;58.83;99094.84;5105909;28;20055;-76
2023/04/21 07:09:01;;;;;;;10.23;9.23;;;;;;;15.80;58.58;99119.91;5099846;28;20103;-77
2023/04/21 07:11:27;;;;;;;10.30;9.30;;;;;;;15.83;58.94;99122.94;5095621;28;20028;-76
2023/04/21 07:13:53;;;;;;;11.25;10.10;;;;;;;15.31;59.09;99030.31;5107024;28;20028;-76
2023/04/21 07:16:18;;;;;;;12.13;10.80;;;;;;;15.78;59.06;99095.34;5083472;28;20058;-76
2023/04/21 07:18:44;;;;;;;10.95;9.27;;;;;;;15.62;58.36;99043.53;5104708;28;20028;-77
2023/04/21 07:21:09;;;;;;;15.85;13.60;;;;;;;15.94;58.89;99088.59;5102580;28;20020;-76
2023/04/21 07:23:34;;;;;;;13.38;11.98;;;;;;;15.93;58.61;99081.66;5088354;28;20051;-77
2023/04/21 07:26:00;;;;;;;15.70;13.70;;;;;;;15.99;58.95;99086.09;5105565;28;20055;-77
2023/04/21 07:28:25;;;;;;;13.68;12.05;;;;;;;15.77;58.92;99057.28;5094989;27;20523;-78
2023/04/21 07:30:51;;;;;;;22.75;14.07;;;;;;;16.24;58.79;99110.75;5100913;28;20108;-76
2023/04/21 07:33:16;;;;;;;12.95;11.65;;;;;;;16.21;58.41;99100.53;5088854;28;20473;-76
2023/04/21 07:35:41;;;;;;;12.32;11.05;;;;;;;15.82;57.93;99033.47;5088268;28;20111;-77
2023/04/21 07:38:07;;;;;;;12.75;10.75;;;;;;;15.97;57.75;99049.03;5091001;28;20020;-77
2023/04/21 07:40:33;;;;;;;13.75;11.20;;;;;;;16.44;57.61;99116.66;5092165;28;20439;-79
2023/04/21 07:42:58;;;;;;;14.00;10.70;;;;;;;16.45;57.32;99099.63;5088012;28;20028;-77
2023/04/21 07:45:25;;;;;;;12.25;10.23;;;;;;;16.57;57.01;99112.97;5091538;28;20057;-77
2023/04/21 07:47:50;;;;;;;11.20;10.10;;;;;;;16.34;57.01;99063.06;5089816;28;20059;-78
2023/04/21 07:50:16;;;;;;;11.63;9.90;;;;;;;16.56;56.42;99075.91;5088005;28;20137;-78
2023/04/21 07:52:41;;;;;;;14.50;12.23;;;;;;;16.70;56.56;99091.50;5091633;28;20110;-79
2023/04/21 07:55:07;;;;;;;10.35;8.45;;;;;;;16.34;55.92;99022.28;5088765;28;20028;-77
2023/04/21 07:57:37;;;;;;;11.20;9.48;;;;;;;16.70;55.42;99067.50;5089567;28;20085;-78
2023/04/21 08:00:06;;;;;;;10.65;9.65;;;;;;;17.14;54.94;99111.53;5089772;28;20077;-77
2023/04/21 08:02:31;;;;;;;10.40;9.23;;;;;;;17.14;54.79;99098.19;5089303;28;20032;-77
2023/04/21 08:04:56;;;;;;;10.57;9.13;;;;;;;16.53;54.31;98989.22;5090602;28;20088;-78
2023/04/21 08:07:22;;;;;;;11.27;10.05;;;;;;;17.11;54.19;99069.31;5090970;28;20028;-78
2023/04/21 08:09:47;;;;;;;12.05;9.90;;;;;;;17.10;54.16;99045.53;5092001;28;20495;-79
2023/04/21 08:12:13;;;;;;;10.95;9.95;;;;;;;16.93;53.93;99026.72;5092144;28;20028;-78
2023/04/21 08:14:39;;;;;;;11.00;9.60;;;;;;;17.46;53.82;99095.16;5089412;28;20103;-79
2023/04/21 08:17:04;;;;;;;13.13;10.27;;;;;;;17.49;54.23;99102.72;5089680;28;20034;-79
2023/04/21 08:19:30;;;;;;;11.80;10.00;;;;;;;17.20;53.75;99060.97;5085737;28;20024;-78
2023/04/21 08:21:56;;;;;;;13.05;8.25;;;;;;;17.44;53.17;99070.56;5094302;28;20035;-78
2023/04/21 08:24:21;;;;;;;10.88;8.45;;;;;;;17.11;52.88;99002.63;5090712;28;20046;-77
2023/04/21 08:26:47;;;;;;;10.07;9.15;;;;;;;17.29;52.93;99003.53;5092231;28;20521;-78
2023/04/21 08:29:12;;;;;;;9.75;8.82;;;;;;;17.57;52.54;99014.25;5086051;28;20099;-79
2023/04/21 08:31:38;;;;;;;9.73;8.05;;;;;;;18.00;52.00;99077.13;5088394;28;20479;-78
2023/04/21 08:34:04;;;;;;;11.20;8.32;;;;;;;17.66;51.82;98998.69;5093257;28;20138;-78
2023/04/21 08:36:30;;;;;;;8.40;7.57;;;;;;;17.75;50.72;98973.25;5086608;28;20028;-77
2023/04/21 08:38:56;;;;;;;9.07;7.50;;;;;;;18.54;49.81;99074.91;5091008;28;20385;-77
2023/04/21 08:41:21;;;;;;;9.30;8.38;;;;;;;18.22;49.25;99003.25;5089838;28;20027;-78
2023/04/21 08:43:47;;;;;;;8.65;7.75;;;;;;;18.26;48.47;98980.34;5090714;28;20020;-77
2023/04/21 08:46:13;;;;;;;7.35;6.65;;;;;;;18.47;47.57;99010.09;5088335;28;20016;-77
2023/04/21 08:48:38;;;;;;;7.13;6.25;;;;;;;18.37;46.79;98955.41;5093368;28;20035;-76
2023/04/21 08:51:08;;;;;;;7.97;6.18;;;;;;;18.93;43.33;99033.88;5086573;28;20021;-78
2023/04/21 08:53:35;;;;;;;8.82;5.97;;;;;;;19.29;44.22;99048.59;5076568;28;20043;-79
2023/04/21 08:56:01;;;;;;;7.72;6.28;;;;;;;19.38;44.28;99024.91;5084363;28;20028;-77
2023/04/21 08:58:26;;;;;;;6.75;6.05;;;;;;;19.11;43.38;98979.28;5086422;28;20070;-77
2023/04/21 09:00:52;;;;;;;6.15;5.57;;;;;;;19.71;42.51;99044.63;5088993;28;21863;-77
2023/04/21 09:03:22;;;;;;;7.75;6.70;;;;;;;19.86;41.62;99059.00;5091141;28;20028;-76
2023/04/21 09:06:00;;;;;;;6.05;5.55;;;;;;;19.80;40.18;99035.09;5084407;28;20028;-77
2023/04/21 09:08:27;;;;;;;8.60;5.90;;;;;;;19.83;41.05;98999.75;5095430;28;20046;-77
2023/04/21 09:10:53;;;;;;;8.60;7.00;;;;;;;20.31;40.55;99048.00;5094540;28;20012;-77
2023/04/21 09:13:19;;;;;;;7.15;6.25;;;;;;;20.57;40.45;99050.94;5080953;28;20481;-77
2023/04/21 09:15:51;;;;;;;6.65;6.05;;;;;;;20.80;39.83;99053.28;5087342;28;20028;-78
2023/04/21 09:18:21;;;;;;;6.20;5.60;;;;;;;20.94;39.61;99038.41;5085460;28;20024;-77
2023/04/21 09:20:48;;;;;;;5.97;5.40;;;;;;;20.15;39.17;98925.63;5086956;28;20131;-76
2023/04/21 09:23:14;;;;;;;7.20;5.72;;;;;;;20.68;38.34;98931.13;5089589;28;20393;-76
2023/04/21 09:25:44;;;;;;;6.90;5.72;;;;;;;21.38;37.85;99019.34;5083684;28;20047;-78
2023/04/21 09:28:11;;;;;;;7.75;5.43;;;;;;;21.42;37.30;99014.28;5081768;28;20040;-76
2023/04/21 09:30:38;;;;;;;7.30;5.93;;;;;;;21.52;37.28;99009.75;5085560;28;20051;-77
2023/04/21 09:33:04;;;;;;;6.13;5.50;;;;;;;21.89;37.33;99016.91;5089758;28;20499;-77
2023/04/21 09:35:38;;;;;;;6.90;6.30;;;;;;;22.13;36.74;99017.25;5101896;28;20494;-76
2023/04/21 09:38:08;;;;;;;8.27;6.03;;;;;;;22.18;36.16;99031.50;5095798;28;20024;-77
2023/04/21 09:40:34;;;;;;;9.45;6.32;;;;;;;22.05;36.20;98988.19;5097616;28;20028;-77
2023/04/21 09:42:59;;;;;;;8.00;5.68;;;;;;;22.37;36.11;99022.97;5103375;28;20020;-76
2023/04/21 09:45:27;;;;;;;6.78;5.53;;;;;;;22.28;35.91;98990.38;5088853;28;20103;-77
2023/04/21 09:47:55;;;;;;;6.53;5.45;;;;;;;22.60;35.77;99035.88;5093296;28;20035;-75
2023/04/21 09:50:22;;;;;;;5.80;5.20;;;;;;;22.35;35.21;98957.88;5090744;28;20039;-75
2023/04/21 09:52:50;;;;;;;6.60;5.57;;;;;;;22.59;34.67;98975.06;5093145;28;20023;-78
2023/04/21 09:55:17;;;;;;;5.53;4.63;;;;;;;22.96;34.16;99001.72;5087187;27;20127;-76
2023/04/21 09:57:45;;;;;;;7.40;5.82;;;;;;;23.27;34.30;99024.03;5082041;28;20028;-75
2023/04/21 10:00:12;;;;;;;6.35;4.70;;;;;;;22.93;33.96;98956.47;5078962;28;20027;-76
2023/04/21 10:02:50;;;;;;;6.00;5.00;;;;;;;23.39;33.80;99012.94;5081259;28;20115;-77
2023/04/21 10:05:16;;;;;;;5.75;5.15;;;;;;;23.40;34.11;99004.59;5087208;28;20024;-76
2023/04/21 10:07:43;;;;;;;5.53;5.03;;;;;;;23.30;33.74;98958.81;5086044;28;20027;-76
2023/04/21 10:10:32;;;;;;;6.47;5.70;;;;;;;23.92;33.07;99013.31;5088079;28;20040;-77
2023/04/21 10:12:58;;;;;;;9.85;5.30;;;;;;;24.00;33.21;98991.16;5085663;28;20032;-76
2023/04/21 10:15:42;;;;;;;5.50;4.82;;;;;;;24.25;32.88;99009.06;5073039;28;20032;-76
2023/04/21 10:18:11;;;;;;;7.00;4.43;;;;;;;24.17;32.20;99001.56;5071772;28;20029;-75
2023/04/21 10:21:09;;;;;;;6.20;5.00;;;;;;;24.19;31.74;98992.09;5071779;28;20039;-76
2023/04/21 10:23:42;;;;;;;7.07;4.28;;;;;;;24.11;31.55;98992.69;5068420;28;20040;-75
2023/04/21 10:26:22;;;;;;;4.53;3.47;;;;;;;23.84;31.11;98927.63;5072069;28;20048;-76
2023/04/21 10:28:58;;;;;;;4.88;4.18;;;;;;;24.47;31.05;98989.75;5072563;28;20033;-77
2023/04/21 10:31:25;;;;;;;4.90;4.18;;;;;;;24.68;31.27;98992.03;5068784;28;20016;-76
2023/04/21 10:34:15;;;;;;;5.25;4.55;;;;;;;24.78;28.52;98987.63;5066621;28;20025;-76
2023/04/21 10:36:43;;;;;;;6.15;3.58;;;;;;;24.90;29.78;98996.97;5067096;28;20020;-76
2023/04/21 10:39:11;;;;;;;4.63;3.13;;;;;;;24.84;29.44;98954.09;5069856;28;20029;-75
2023/04/21 10:41:37;;;;;;;4.68;3.45;;;;;;;25.14;29.05;98988.91;5072721;28;20655;-75
2023/04/21 10:44:06;;;;;;;4.40;3.40;;;;;;;25.27;28.42;98977.44;5071570;28;20024;-75
2023/04/21 10:46:38;;;;;;;6.10;3.55;;;;;;;24.95;28.09;98906.97;5066948;28;20416;-75
2023/04/21 10:49:09;;;;;;;4.80;3.70;;;;;;;25.23;27.07;98927.75;5071264;28;20063;-74
2023/04/21 10:51:56;;;;;;;4.57;3.10;;;;;;;25.68;26.85;98971.56;5071489;28;20027;-76
2023/04/21 10:54:21;;;;;;;5.53;4.30;;;;;;;25.16;27.65;98875.97;5083484;28;20035;-77
2023/04/21 10:56:51;;;;;;;5.00;3.38;;;;;;;25.90;26.91;98977.19;5078148;28;20108;-76
2023/04/21 10:59:17;;;;;;;4.75;3.25;;;;;;;26.02;26.72;98976.78;5076618;28;20177;-77
2023/04/21 11:01:43;;;;;;;4.32;3.45;;;;;;;25.80;26.56;98915.13;5070890;28;20417;-76
2023/04/21 11:04:27;;;;;;;4.93;3.50;;;;;;;26.17;26.13;98973.03;5067835;28;20028;-77
2023/04/21 11:07:24;;;;;;;3.13;2.90;;;;;;;26.37;26.52;98977.38;5069923;28;20623;-75
2023/04/21 11:09:57;;;;;;;8.88;3.13;;;;;;;26.48;25.75;98985.03;5070613;28;20107;-76
2023/04/21 11:12:27;;;;;;;4.22;3.33;;;;;;;26.70;25.63;98986.28;5070799;28;20413;-75
2023/04/21 11:14:52;;;;;;;4.35;3.20;;;;;;;26.71;25.39;98972.44;5072469;28;20154;-75
2023/04/21 11:17:19;;;;;;;3.65;2.63;;;;;;;26.86;25.10;98968.69;5070827;28;20049;-74
2023/04/21 11:19:53;;;;;;;4.43;3.10;;;;;;;26.80;25.17;98927.34;5087735;28;20037;-75
2023/04/21 11:22:20;;;;;;;3.88;3.13;;;;;;;27.14;24.62;98981.19;5086755;28;20454;-75